sensor_id;sensor_type;location;lat;lon;timestamp;pressure;altitude;pressure_sealevel;temperature;humidity
64343;BME280;50675;53.530;-6.312;2023-05-11T00:19:19;100692.53;;;15.29;63.94
64343;BME280;50675;53.530;-6.312;2023-05-11T00:22:06;100690.91;;;15.23;63.91
64343;BME280;50675;53.530;-6.312;2023-05-11T00:32:26;100702.28;;;15.35;63.96
64343;BME280;50675;53.530;-6.312;2023-05-11T00:36:00;100690.94;;;15.13;64.04
64343;BME280;50675;53.530;-6.312;2023-05-11T00:38:56;100694.44;;;15.23;63.96
64343;BME280;50675;53.530;-6.312;2023-05-11T00:41:55;100693.44;;;14.99;63.66
64343;BME280;50675;53.530;-6.312;2023-05-11T00:44:32;100694.25;;;14.89;63.83
64343;BME280;50675;53.530;-6.312;2023-05-11T00:47:45;100702.44;;;14.84;63.81
64343;BME280;50675;53.530;-6.312;2023-05-11T00:50:56;100697.25;;;14.83;63.72
64343;BME280;50675;53.530;-6.312;2023-05-11T00:54:04;100703.81;;;14.67;63.47
64343;BME280;50675;53.530;-6.312;2023-05-11T00:57:12;100694.31;;;14.59;63.67
64343;BME280;50675;53.530;-6.312;2023-05-11T00:59:59;100711.16;;;14.51;63.41
64343;BME280;50675;53.530;-6.312;2023-05-11T01:03:01;100703.84;;;14.47;63.57
64343;BME280;50675;53.530;-6.312;2023-05-11T01:06:06;100712.53;;;14.43;63.41
64343;BME280;50675;53.530;-6.312;2023-05-11T01:08:56;100711.44;;;14.29;63.55
64343;BME280;50675;53.530;-6.312;2023-05-11T01:12:24;100710.31;;;14.30;63.45
64343;BME280;50675;53.530;-6.312;2023-05-11T01:15:11;100711.44;;;14.29;63.35
64343;BME280;50675;53.530;-6.312;2023-05-11T01:44:17;100707.81;;;13.88;63.21
64343;BME280;50675;53.530;-6.312;2023-05-11T02:07:16;100706.22;;;13.97;63.41
64343;BME280;50675;53.530;-6.312;2023-05-11T02:18:43;100723.88;;;14.00;63.56
64343;BME280;50675;53.530;-6.312;2023-05-11T02:36:13;100717.09;;;14.13;63.76
64343;BME280;50675;53.530;-6.312;2023-05-11T02:44:22;100725.31;;;14.38;64.18
64343;BME280;50675;53.530;-6.312;2023-05-11T02:53:52;100725.31;;;14.53;64.31
64343;BME280;50675;53.530;-6.312;2023-05-11T03:04:27;100725.31;;;14.48;64.15
64343;BME280;50675;53.530;-6.312;2023-05-11T03:11:45;100726.41;;;14.42;64.39
64343;BME280;50675;53.530;-6.312;2023-05-11T03:15:04;100731.00;;;14.47;64.36
64343;BME280;50675;53.530;-6.312;2023-05-11T03:18:14;100736.72;;;14.45;64.53
64343;BME280;50675;53.530;-6.312;2023-05-11T03:24:07;100724.50;;;14.48;64.61
64343;BME280;50675;53.530;-6.312;2023-05-11T03:27:10;100719.31;;;14.46;64.41
64343;BME280;50675;53.530;-6.312;2023-05-11T03:30:44;100728.84;;;14.49;64.53
64343;BME280;50675;53.530;-6.312;2023-05-11T03:52:36;100730.75;;;14.48;64.95
64343;BME280;50675;53.530;-6.312;2023-05-11T03:55:27;100727.47;;;14.61;64.68
64343;BME280;50675;53.530;-6.312;2023-05-11T03:58:39;100725.59;;;14.57;64.84
64343;BME280;50675;53.530;-6.312;2023-05-11T04:08:12;100732.34;;;14.54;64.84
64343;BME280;50675;53.530;-6.312;2023-05-11T04:11:19;100737.81;;;14.59;64.96
64343;BME280;50675;53.530;-6.312;2023-05-11T04:14:12;100731.00;;;14.67;65.07
64343;BME280;50675;53.530;-6.312;2023-05-11T04:17:12;100733.19;;;14.65;65.16
64343;BME280;50675;53.530;-6.312;2023-05-11T04:20:08;100737.53;;;14.71;65.07
64343;BME280;50675;53.530;-6.312;2023-05-11T04:23:05;100754.09;;;14.64;64.82
64343;BME280;50675;53.530;-6.312;2023-05-11T04:26:27;100753.84;;;14.66;65.11
64343;BME280;50675;53.530;-6.312;2023-05-11T04:29:48;100750.56;;;14.74;65.17
64343;BME280;50675;53.530;-6.312;2023-05-11T04:33:13;100739.19;;;14.62;65.06
64343;BME280;50675;53.530;-6.312;2023-05-11T04:35:56;100742.72;;;14.62;65.08
64343;BME280;50675;53.530;-6.312;2023-05-11T04:39:35;100748.66;;;14.74;65.07
64343;BME280;50675;53.530;-6.312;2023-05-11T04:46:30;100741.34;;;14.70;65.13
64343;BME280;50675;53.530;-6.312;2023-05-11T04:52:53;100753.03;;;14.55;65.09
64343;BME280;50675;53.530;-6.312;2023-05-11T04:55:46;100755.75;;;14.70;65.21
64343;BME280;50675;53.530;-6.312;2023-05-11T04:59:05;100754.09;;;14.69;65.24
64343;BME280;50675;53.530;-6.312;2023-05-11T05:02:19;100747.06;;;14.58;65.28
64343;BME280;50675;53.530;-6.312;2023-05-11T05:07:53;100746.78;;;14.70;65.27
64343;BME280;50675;53.530;-6.312;2023-05-11T05:10:43;100750.31;;;14.75;65.35
64343;BME280;50675;53.530;-6.312;2023-05-11T05:13:49;100743.78;;;14.66;65.49
64343;BME280;50675;53.530;-6.312;2023-05-11T05:16:33;100754.94;;;14.65;65.54
64343;BME280;50675;53.530;-6.312;2023-05-11T05:38:11;100758.72;;;14.74;65.70
64343;BME280;50675;53.530;-6.312;2023-05-11T05:40:37;100749.50;;;14.80;65.56
64343;BME280;50675;53.530;-6.312;2023-05-11T05:43:04;100760.34;;;14.85;65.86
64343;BME280;50675;53.530;-6.312;2023-05-11T05:45:30;100758.47;;;14.85;65.71
64343;BME280;50675;53.530;-6.312;2023-05-11T05:47:56;100756.81;;;14.95;65.79
64343;BME280;50675;53.530;-6.312;2023-05-11T05:50:25;100756.25;;;14.98;65.86
64343;BME280;50675;53.530;-6.312;2023-05-11T05:52:51;100754.66;;;14.97;65.97
64343;BME280;50675;53.530;-6.312;2023-05-11T05:55:17;100764.41;;;15.03;65.94
64343;BME280;50675;53.530;-6.312;2023-05-11T05:57:42;100773.94;;;15.00;65.86
64343;BME280;50675;53.530;-6.312;2023-05-11T06:00:09;100774.22;;;14.94;65.96
64343;BME280;50675;53.530;-6.312;2023-05-11T06:02:35;100782.38;;;14.94;65.71
64343;BME280;50675;53.530;-6.312;2023-05-11T06:05:01;100780.22;;;14.91;66.01
64343;BME280;50675;53.530;-6.312;2023-05-11T06:07:27;100779.41;;;14.85;65.89
64343;BME280;50675;53.530;-6.312;2023-05-11T06:09:52;100784.56;;;14.92;65.84
64343;BME280;50675;53.530;-6.312;2023-05-11T06:12:18;100780.22;;;14.85;65.86
64343;BME280;50675;53.530;-6.312;2023-05-11T06:14:44;100779.66;;;14.88;66.07
64343;BME280;50675;53.530;-6.312;2023-05-11T06:17:10;100783.19;;;14.94;66.04
64343;BME280;50675;53.530;-6.312;2023-05-11T06:19:36;100787.28;;;14.86;65.99
64343;BME280;50675;53.530;-6.312;2023-05-11T06:22:02;100782.38;;;15.04;65.95
64343;BME280;50675;53.530;-6.312;2023-05-11T06:24:28;100784.00;;;15.10;66.12
64343;BME280;50675;53.530;-6.312;2023-05-11T06:26:54;100785.59;;;15.16;66.20
64343;BME280;50675;53.530;-6.312;2023-05-11T06:29:20;100784.50;;;15.22;66.05
64343;BME280;50675;53.530;-6.312;2023-05-11T06:31:46;100785.31;;;15.27;66.03
64343;BME280;50675;53.530;-6.312;2023-05-11T06:34:20;100786.09;;;15.38;66.13
64343;BME280;50675;53.530;-6.312;2023-05-11T06:36:52;100790.41;;;15.49;66.21
64343;BME280;50675;53.530;-6.312;2023-05-11T06:39:18;100785.53;;;15.56;66.33
64343;BME280;50675;53.530;-6.312;2023-05-11T06:41:44;100779.53;;;15.59;66.38
64343;BME280;50675;53.530;-6.312;2023-05-11T06:44:11;100798.59;;;15.54;66.50
64343;BME280;50675;53.530;-6.312;2023-05-11T06:46:37;100797.75;;;15.59;66.50
64343;BME280;50675;53.530;-6.312;2023-05-11T06:49:03;100790.72;;;15.48;66.52
64343;BME280;50675;53.530;-6.312;2023-05-11T06:51:29;100796.97;;;15.48;66.43
64343;BME280;50675;53.530;-6.312;2023-05-11T06:53:55;100785.56;;;15.31;66.53
64343;BME280;50675;53.530;-6.312;2023-05-11T06:56:21;100798.09;;;15.37;66.56
64343;BME280;50675;53.530;-6.312;2023-05-11T06:58:46;100799.19;;;15.31;66.47
64343;BME280;50675;53.530;-6.312;2023-05-11T07:01:12;100795.13;;;15.18;66.31
64343;BME280;50675;53.530;-6.312;2023-05-11T07:03:39;100799.78;;;15.08;66.59
64343;BME280;50675;53.530;-6.312;2023-05-11T07:06:05;100798.41;;;15.15;66.50
64343;BME280;50675;53.530;-6.312;2023-05-11T07:08:31;100800.84;;;15.17;66.65
64343;BME280;50675;53.530;-6.312;2023-05-11T07:10:58;100802.22;;;15.09;66.56
64343;BME280;50675;53.530;-6.312;2023-05-11T07:13:24;100802.50;;;15.08;66.50
64343;BME280;50675;53.530;-6.312;2023-05-11T07:15:50;100799.50;;;14.94;66.31
64343;BME280;50675;53.530;-6.312;2023-05-11T07:18:15;100804.69;;;15.06;66.45
64343;BME280;50675;53.530;-6.312;2023-05-11T07:20:41;100814.47;;;15.07;66.48
64343;BME280;50675;53.530;-6.312;2023-05-11T07:23:11;100803.31;;;15.13;66.61
64343;BME280;50675;53.530;-6.312;2023-05-11T07:29:37;100796.69;;;15.55;66.75
64343;BME280;50675;53.530;-6.312;2023-05-11T07:32:03;100799.28;;;15.90;66.52
64343;BME280;50675;53.530;-6.312;2023-05-11T07:34:29;100802.81;;;16.35;66.75
64343;BME280;50675;53.530;-6.312;2023-05-11T07:36:55;100796.75;;;16.87;67.01
64343;BME280;50675;53.530;-6.312;2023-05-11T07:39:21;100810.09;;;17.17;66.84
64343;BME280;50675;53.530;-6.312;2023-05-11T07:41:47;100809.69;;;17.34;67.03
64343;BME280;50675;53.530;-6.312;2023-05-11T07:44:12;100810.41;;;17.39;67.08
64343;BME280;50675;53.530;-6.312;2023-05-11T07:46:38;100810.13;;;17.41;67.02
64343;BME280;50675;53.530;-6.312;2023-05-11T07:49:04;100804.44;;;17.37;66.97
64343;BME280;50675;53.530;-6.312;2023-05-11T07:51:30;100820.94;;;17.27;67.07
64343;BME280;50675;53.530;-6.312;2023-05-11T07:53:56;100824.03;;;17.16;66.96
64343;BME280;50675;53.530;-6.312;2023-05-11T07:56:22;100831.47;;;17.10;66.67
64343;BME280;50675;53.530;-6.312;2023-05-11T07:58:48;100834.84;;;16.97;67.01
64343;BME280;50675;53.530;-6.312;2023-05-11T08:01:13;100834.66;;;16.88;66.76
64343;BME280;50675;53.530;-6.312;2023-05-11T08:07:41;100824.00;;;16.53;66.80
64343;BME280;50675;53.530;-6.312;2023-05-11T08:10:28;100824.72;;;16.69;66.66
64343;BME280;50675;53.530;-6.312;2023-05-11T08:12:53;100834.50;;;16.75;66.78
64343;BME280;50675;53.530;-6.312;2023-05-11T08:15:19;100832.34;;;16.72;66.83
64343;BME280;50675;53.530;-6.312;2023-05-11T08:17:45;100842.03;;;16.88;66.67
64343;BME280;50675;53.530;-6.312;2023-05-11T08:20:11;100835.31;;;17.09;66.72
64343;BME280;50675;53.530;-6.312;2023-05-11T08:22:37;100841.53;;;17.15;66.79
64343;BME280;50675;53.530;-6.312;2023-05-11T08:25:03;100844.19;;;17.25;66.62
64343;BME280;50675;53.530;-6.312;2023-05-11T08:27:29;100846.31;;;17.28;66.99
64343;BME280;50675;53.530;-6.312;2023-05-11T08:29:55;100846.13;;;17.48;66.87
64343;BME280;50675;53.530;-6.312;2023-05-11T08:32:21;100836.44;;;17.61;66.88
64343;BME280;50675;53.530;-6.312;2023-05-11T08:34:47;100844.31;;;17.67;66.80
64343;BME280;50675;53.530;-6.312;2023-05-11T08:37:12;100847.59;;;17.88;67.20
64343;BME280;50675;53.530;-6.312;2023-05-11T08:39:38;100841.69;;;17.81;66.79
64343;BME280;50675;53.530;-6.312;2023-05-11T08:42:04;100837.34;;;17.99;66.67
64343;BME280;50675;53.530;-6.312;2023-05-11T08:44:34;100844.91;;;18.07;66.56
64343;BME280;50675;53.530;-6.312;2023-05-11T08:47:02;100850.63;;;18.10;66.58
64343;BME280;50675;53.530;-6.312;2023-05-11T08:49:29;100830.22;;;18.21;67.00
64343;BME280;50675;53.530;-6.312;2023-05-11T08:51:56;100832.28;;;18.29;66.97
64343;BME280;50675;53.530;-6.312;2023-05-11T08:54:21;100840.88;;;18.42;66.75
64343;BME280;50675;53.530;-6.312;2023-05-11T08:56:49;100835.19;;;18.38;66.91
64343;BME280;50675;53.530;-6.312;2023-05-11T08:59:19;100826.47;;;18.55;66.51
64343;BME280;50675;53.530;-6.312;2023-05-11T09:01:46;100840.59;;;18.62;66.54
64343;BME280;50675;53.530;-6.312;2023-05-11T09:04:13;100832.75;;;18.74;66.53
64343;BME280;50675;53.530;-6.312;2023-05-11T09:06:41;100846.81;;;18.67;66.22
64343;BME280;50675;53.530;-6.312;2023-05-11T09:09:07;100843.03;;;18.63;66.49
64343;BME280;50675;53.530;-6.312;2023-05-11T09:11:33;100834.28;;;18.80;66.32
64343;BME280;50675;53.530;-6.312;2023-05-11T09:13:59;100830.63;;;18.71;66.10
64343;BME280;50675;53.530;-6.312;2023-05-11T09:16:25;100833.94;;;18.68;66.16
64343;BME280;50675;53.530;-6.312;2023-05-11T09:18:51;100832.53;;;18.70;66.16
64343;BME280;50675;53.530;-6.312;2023-05-11T09:21:18;100823.50;;;18.70;65.94
64343;BME280;50675;53.530;-6.312;2023-05-11T09:23:48;100827.56;;;18.72;65.44
64343;BME280;50675;53.530;-6.312;2023-05-11T09:26:21;100836.38;;;18.69;65.11
64343;BME280;50675;53.530;-6.312;2023-05-11T09:28:55;100823.44;;;18.75;65.35
64343;BME280;50675;53.530;-6.312;2023-05-11T09:31:41;100825.31;;;18.93;65.38
64343;BME280;50675;53.530;-6.312;2023-05-11T09:34:14;100826.25;;;19.02;65.18
64343;BME280;50675;53.530;-6.312;2023-05-11T09:36:42;100829.50;;;19.04;65.29
64343;BME280;50675;53.530;-6.312;2023-05-11T09:39:09;100835.16;;;18.94;65.31
64343;BME280;50675;53.530;-6.312;2023-05-11T09:41:35;100856.19;;;18.80;64.98
64343;BME280;50675;53.530;-6.312;2023-05-11T09:46:39;100850.03;;;18.32;64.58
64343;BME280;50675;53.530;-6.312;2023-05-11T09:49:06;100840.00;;;18.65;64.37
64343;BME280;50675;53.530;-6.312;2023-05-11T09:51:34;100845.81;;;18.77;64.32
64343;BME280;50675;53.530;-6.312;2023-05-11T09:54:00;100851.75;;;18.65;64.03
64343;BME280;50675;53.530;-6.312;2023-05-11T09:56:49;100847.44;;;18.78;64.25
64343;BME280;50675;53.530;-6.312;2023-05-11T10:02:28;100850.75;;;18.94;64.02
64343;BME280;50675;53.530;-6.312;2023-05-11T10:04:55;100838.47;;;19.10;64.40
64343;BME280;50675;53.530;-6.312;2023-05-11T10:07:23;100855.22;;;19.22;64.37
64343;BME280;50675;53.530;-6.312;2023-05-11T10:09:52;100861.50;;;19.22;64.17
64343;BME280;50675;53.530;-6.312;2023-05-11T10:12:20;100844.28;;;19.36;64.13
64343;BME280;50675;53.530;-6.312;2023-05-11T10:18:33;100841.28;;;19.78;63.94
64343;BME280;50675;53.530;-6.312;2023-05-11T10:20:59;100849.13;;;19.85;64.15
64343;BME280;50675;53.530;-6.312;2023-05-11T10:23:25;100827.50;;;19.70;64.00
64343;BME280;50675;53.530;-6.312;2023-05-11T10:25:55;100851.75;;;19.62;63.98
64343;BME280;50675;53.530;-6.312;2023-05-11T10:28:21;100863.72;;;19.53;63.54
64343;BME280;50675;53.530;-6.312;2023-05-11T10:30:48;100847.16;;;19.44;63.53
64343;BME280;50675;53.530;-6.312;2023-05-11T10:33:15;100847.44;;;19.43;63.01
64343;BME280;50675;53.530;-6.312;2023-05-11T10:35:44;100838.66;;;19.59;63.39
64343;BME280;50675;53.530;-6.312;2023-05-11T10:38:17;100842.31;;;19.69;63.09
64343;BME280;50675;53.530;-6.312;2023-05-11T10:40:47;100845.06;;;19.69;62.83
64343;BME280;50675;53.530;-6.312;2023-05-11T10:57:10;100824.25;;;19.95;62.25
64343;BME280;50675;53.530;-6.312;2023-05-11T11:02:31;100829.63;;;20.49;62.48
64343;BME280;50675;53.530;-6.312;2023-05-11T11:04:56;100820.28;;;20.50;62.65
64343;BME280;50675;53.530;-6.312;2023-05-11T11:07:54;100846.97;;;20.59;62.64
64343;BME280;50675;53.530;-6.312;2023-05-11T11:10:36;100866.00;;;20.55;62.76
64343;BME280;50675;53.530;-6.312;2023-05-11T11:13:09;100854.81;;;19.61;62.54
64343;BME280;50675;53.530;-6.312;2023-05-11T11:18:35;100845.38;;;18.32;62.04
64343;BME280;50675;53.530;-6.312;2023-05-11T11:21:01;100865.50;;;17.99;62.72
64343;BME280;50675;53.530;-6.312;2023-05-11T11:23:42;100874.41;;;17.86;62.54
64343;BME280;50675;53.530;-6.312;2023-05-11T11:26:10;100868.44;;;17.55;62.29
64343;BME280;50675;53.530;-6.312;2023-05-11T11:31:22;100875.16;;;17.39;62.71
64343;BME280;50675;53.530;-6.312;2023-05-11T11:34:35;100882.22;;;17.40;62.70
64343;BME280;50675;53.530;-6.312;2023-05-11T11:37:02;100881.47;;;17.34;62.79
64343;BME280;50675;53.530;-6.312;2023-05-11T11:39:53;100889.59;;;17.39;62.88
64343;BME280;50675;53.530;-6.312;2023-05-11T11:42:35;100885.00;;;17.35;63.00
64343;BME280;50675;53.530;-6.312;2023-05-11T11:45:39;100882.31;;;17.30;63.35
64343;BME280;50675;53.530;-6.312;2023-05-11T11:50:35;100886.25;;;17.19;63.48
64343;BME280;50675;53.530;-6.312;2023-05-11T11:53:01;100881.13;;;17.12;63.41
64343;BME280;50675;53.530;-6.312;2023-05-11T11:55:59;100880.09;;;17.03;63.31
64343;BME280;50675;53.530;-6.312;2023-05-11T12:01:07;100892.78;;;16.89;63.46
64343;BME280;50675;53.530;-6.312;2023-05-11T12:03:36;100883.22;;;16.91;63.57
64343;BME280;50675;53.530;-6.312;2023-05-11T12:06:04;100884.50;;;16.99;63.59
64343;BME280;50675;53.530;-6.312;2023-05-11T12:08:30;100879.53;;;17.06;63.78
64343;BME280;50675;53.530;-6.312;2023-05-11T12:10:57;100883.28;;;17.15;63.86
64343;BME280;50675;53.530;-6.312;2023-05-11T12:13:24;100874.44;;;17.28;63.97
64343;BME280;50675;53.530;-6.312;2023-05-11T12:16:09;100886.28;;;17.47;64.15
64343;BME280;50675;53.530;-6.312;2023-05-11T12:18:37;100890.75;;;17.67;64.02
64343;BME280;50675;53.530;-6.312;2023-05-11T12:21:02;100891.91;;;17.85;64.03
64343;BME280;50675;53.530;-6.312;2023-05-11T12:23:29;100888.47;;;17.98;64.31
64343;BME280;50675;53.530;-6.312;2023-05-11T12:26:02;100885.41;;;18.05;64.27
64343;BME280;50675;53.530;-6.312;2023-05-11T12:28:28;100895.00;;;18.21;64.27
64343;BME280;50675;53.530;-6.312;2023-05-11T12:30:55;100888.84;;;18.34;64.47
64343;BME280;50675;53.530;-6.312;2023-05-11T12:33:21;100895.78;;;18.45;64.61
64343;BME280;50675;53.530;-6.312;2023-05-11T12:44:07;100903.38;;;18.91;64.63
64343;BME280;50675;53.530;-6.312;2023-05-11T12:47:07;100895.09;;;18.96;65.02
64343;BME280;50675;53.530;-6.312;2023-05-11T12:50:04;100893.88;;;19.02;65.01
64343;BME280;50675;53.530;-6.312;2023-05-11T12:53:53;100905.06;;;18.87;64.83
64343;BME280;50675;53.530;-6.312;2023-05-11T13:30:40;100924.41;;;17.58;65.18
64343;BME280;50675;53.530;-6.312;2023-05-11T13:33:05;100937.16;;;17.72;65.15
64343;BME280;50675;53.530;-6.312;2023-05-11T13:35:31;100944.38;;;17.82;65.35
64343;BME280;50675;53.530;-6.312;2023-05-11T13:37:57;100941.56;;;17.92;65.62
64343;BME280;50675;53.530;-6.312;2023-05-11T13:40:23;100944.78;;;17.99;65.66
64343;BME280;50675;53.530;-6.312;2023-05-11T13:42:49;100946.97;;;17.97;65.73
64343;BME280;50675;53.530;-6.312;2023-05-11T13:45:15;100950.28;;;17.94;65.62
64343;BME280;50675;53.530;-6.312;2023-05-11T13:47:41;100942.47;;;17.82;65.78
64343;BME280;50675;53.530;-6.312;2023-05-11T13:50:07;100952.59;;;17.82;65.84
64343;BME280;50675;53.530;-6.312;2023-05-11T13:52:33;100960.38;;;17.70;65.85
64343;BME280;50675;53.530;-6.312;2023-05-11T13:54:59;100955.81;;;17.60;66.02
64343;BME280;50675;53.530;-6.312;2023-05-11T13:57:25;100959.22;;;17.42;66.05
64343;BME280;50675;53.530;-6.312;2023-05-11T13:59:51;100972.69;;;17.33;65.93
64343;BME280;50675;53.530;-6.312;2023-05-11T14:02:19;100975.13;;;17.35;65.98
64343;BME280;50675;53.530;-6.312;2023-05-11T14:04:45;100973.41;;;17.10;65.88
64343;BME280;50675;53.530;-6.312;2023-05-11T14:07:14;100974.53;;;17.04;65.98
64343;BME280;50675;53.530;-6.312;2023-05-11T14:09:40;100975.94;;;16.96;65.96
64343;BME280;50675;53.530;-6.312;2023-05-11T14:12:08;100979.41;;;17.07;65.84
64343;BME280;50675;53.530;-6.312;2023-05-11T14:14:34;100983.44;;;17.20;66.01
64343;BME280;50675;53.530;-6.312;2023-05-11T14:17:00;100985.81;;;17.31;66.04
64343;BME280;50675;53.530;-6.312;2023-05-11T14:19:26;100989.50;;;17.45;66.05
64343;BME280;50675;53.530;-6.312;2023-05-11T14:21:52;100970.06;;;17.52;66.22
64343;BME280;50675;53.530;-6.312;2023-05-11T14:24:18;101000.59;;;17.64;66.19
64343;BME280;50675;53.530;-6.312;2023-05-11T14:26:44;100988.84;;;17.64;66.13
64343;BME280;50675;53.530;-6.312;2023-05-11T14:29:10;100987.06;;;17.78;66.30
64343;BME280;50675;53.530;-6.312;2023-05-11T14:31:36;100995.75;;;17.85;66.50
64343;BME280;50675;53.530;-6.312;2023-05-11T14:34:04;101001.63;;;17.97;66.53
64343;BME280;50675;53.530;-6.312;2023-05-11T14:36:30;100993.88;;;18.09;66.55
64343;BME280;50675;53.530;-6.312;2023-05-11T14:38:56;100991.75;;;18.01;66.36
64343;BME280;50675;53.530;-6.312;2023-05-11T14:41:22;100992.78;;;18.10;66.30
64343;BME280;50675;53.530;-6.312;2023-05-11T14:43:48;100998.25;;;18.10;66.78
64343;BME280;50675;53.530;-6.312;2023-05-11T14:46:15;100997.13;;;18.11;66.71
64343;BME280;50675;53.530;-6.312;2023-05-11T14:48:41;101014.75;;;18.00;66.72
64343;BME280;50675;53.530;-6.312;2023-05-11T14:51:07;101004.84;;;18.04;66.46
64343;BME280;50675;53.530;-6.312;2023-05-11T14:53:33;101012.66;;;17.87;66.66
64343;BME280;50675;53.530;-6.312;2023-05-11T14:55:59;101019.00;;;17.82;66.62
64343;BME280;50675;53.530;-6.312;2023-05-11T14:58:25;101018.25;;;17.77;66.58
64343;BME280;50675;53.530;-6.312;2023-05-11T15:00:51;101029.78;;;17.69;66.60
64343;BME280;50675;53.530;-6.312;2023-05-11T15:03:17;101028.72;;;17.65;66.47
64343;BME280;50675;53.530;-6.312;2023-05-11T15:09:21;101033.56;;;17.73;66.48
64343;BME280;50675;53.530;-6.312;2023-05-11T15:11:48;101035.03;;;17.60;66.40
64343;BME280;50675;53.530;-6.312;2023-05-11T15:14:36;101050.81;;;17.68;66.54
64343;BME280;50675;53.530;-6.312;2023-05-11T15:17:02;101056.91;;;17.60;66.57
64343;BME280;50675;53.530;-6.312;2023-05-11T15:19:28;101051.78;;;17.48;66.42
64343;BME280;50675;53.530;-6.312;2023-05-11T15:29:39;101045.72;;;17.52;65.99
64343;BME280;50675;53.530;-6.312;2023-05-11T15:32:05;101066.72;;;17.61;66.22
64343;BME280;50675;53.530;-6.312;2023-05-11T15:34:31;101065.47;;;17.43;66.11
64343;BME280;50675;53.530;-6.312;2023-05-11T15:36:56;101073.25;;;17.65;66.02
64343;BME280;50675;53.530;-6.312;2023-05-11T15:39:24;101070.16;;;17.77;65.98
64343;BME280;50675;53.530;-6.312;2023-05-11T15:41:50;101066.16;;;17.64;66.03
64343;BME280;50675;53.530;-6.312;2023-05-11T15:44:36;101067.44;;;17.77;66.09
64343;BME280;50675;53.530;-6.312;2023-05-11T15:47:16;101082.16;;;17.81;65.93
64343;BME280;50675;53.530;-6.312;2023-05-11T15:49:45;101071.81;;;17.73;65.89
64343;BME280;50675;53.530;-6.312;2023-05-11T15:52:17;101063.44;;;17.59;66.14
64343;BME280;50675;53.530;-6.312;2023-05-11T15:54:46;101084.50;;;17.54;65.77
64343;BME280;50675;53.530;-6.312;2023-05-11T15:57:15;101083.88;;;17.72;65.77
64343;BME280;50675;53.530;-6.312;2023-05-11T15:59:47;101067.72;;;17.31;66.02
64343;BME280;50675;53.530;-6.312;2023-05-11T16:02:16;101079.63;;;17.45;65.75
64343;BME280;50675;53.530;-6.312;2023-05-11T16:04:46;101070.56;;;17.55;65.83
64343;BME280;50675;53.530;-6.312;2023-05-11T16:07:18;101094.88;;;17.62;65.94
64343;BME280;50675;53.530;-6.312;2023-05-11T16:09:50;101105.50;;;17.63;65.47
64343;BME280;50675;53.530;-6.312;2023-05-11T16:12:16;101109.72;;;17.35;65.33
64343;BME280;50675;53.530;-6.312;2023-05-11T16:14:48;101111.59;;;17.45;65.50
64343;BME280;50675;53.530;-6.312;2023-05-11T16:17:14;101110.25;;;17.42;65.36
64343;BME280;50675;53.530;-6.312;2023-05-11T16:19:49;101113.78;;;17.48;65.14
64343;BME280;50675;53.530;-6.312;2023-05-11T16:22:14;101126.03;;;17.50;65.57
64343;BME280;50675;53.530;-6.312;2023-05-11T16:24:47;101143.50;;;17.49;65.20
64343;BME280;50675;53.530;-6.312;2023-05-11T16:27:13;101140.81;;;17.44;65.39
64343;BME280;50675;53.530;-6.312;2023-05-11T16:29:49;101141.38;;;17.41;65.20
64343;BME280;50675;53.530;-6.312;2023-05-11T16:32:16;101156.72;;;17.37;65.32
64343;BME280;50675;53.530;-6.312;2023-05-11T16:34:47;101165.50;;;17.29;65.02
64343;BME280;50675;53.530;-6.312;2023-05-11T16:37:14;101162.97;;;17.43;65.03
64343;BME280;50675;53.530;-6.312;2023-05-11T16:39:47;101166.34;;;17.20;65.12
64343;BME280;50675;53.530;-6.312;2023-05-11T16:42:13;101176.38;;;17.34;65.32
64343;BME280;50675;53.530;-6.312;2023-05-11T16:47:15;101189.06;;;17.05;65.16
64343;BME280;50675;53.530;-6.312;2023-05-11T16:49:53;101186.53;;;17.29;64.95
64343;BME280;50675;53.530;-6.312;2023-05-11T16:52:19;101191.13;;;17.33;64.80
64343;BME280;50675;53.530;-6.312;2023-05-11T16:54:51;101183.53;;;17.20;65.05
64343;BME280;50675;53.530;-6.312;2023-05-11T16:57:17;101199.91;;;17.20;64.98
64343;BME280;50675;53.530;-6.312;2023-05-11T16:59:49;101211.31;;;17.37;65.16
64343;BME280;50675;53.530;-6.312;2023-05-11T17:02:15;101200.41;;;17.32;65.29
64343;BME280;50675;53.530;-6.312;2023-05-11T17:04:50;101207.78;;;17.32;65.01
64343;BME280;50675;53.530;-6.312;2023-05-11T17:07:16;101207.38;;;16.94;64.76
64343;BME280;50675;53.530;-6.312;2023-05-11T17:09:48;101225.59;;;17.24;65.09
64343;BME280;50675;53.530;-6.312;2023-05-11T17:12:16;101235.19;;;16.96;64.83
64343;BME280;50675;53.530;-6.312;2023-05-11T17:14:42;101241.97;;;17.24;65.15
64343;BME280;50675;53.530;-6.312;2023-05-11T17:17:07;101244.09;;;17.37;64.77
64343;BME280;50675;53.530;-6.312;2023-05-11T17:19:33;101249.00;;;17.35;65.17
64343;BME280;50675;53.530;-6.312;2023-05-11T17:21:59;101246.56;;;17.34;64.85
64343;BME280;50675;53.530;-6.312;2023-05-11T17:24:25;101254.47;;;17.30;64.87
64343;BME280;50675;53.530;-6.312;2023-05-11T17:26:52;101262.41;;;17.32;64.75
64343;BME280;50675;53.530;-6.312;2023-05-11T17:29:19;101259.69;;;17.32;64.75
64343;BME280;50675;53.530;-6.312;2023-05-11T17:31:51;101274.72;;;17.24;64.80
64343;BME280;50675;53.530;-6.312;2023-05-11T17:34:17;101271.72;;;17.16;64.76
64343;BME280;50675;53.530;-6.312;2023-05-11T17:36:43;101276.09;;;17.17;64.64
64343;BME280;50675;53.530;-6.312;2023-05-11T17:39:10;101276.94;;;17.12;64.74
64343;BME280;50675;53.530;-6.312;2023-05-11T17:41:35;101272.03;;;17.09;64.59
64343;BME280;50675;53.530;-6.312;2023-05-11T17:44:01;101282.41;;;17.02;64.63
64343;BME280;50675;53.530;-6.312;2023-05-11T17:46:26;101295.22;;;17.01;64.87
64343;BME280;50675;53.530;-6.312;2023-05-11T17:48:55;101296.06;;;16.97;64.57
64343;BME280;50675;53.530;-6.312;2023-05-11T17:51:21;101302.63;;;17.01;64.73
64343;BME280;50675;53.530;-6.312;2023-05-11T17:53:47;101311.59;;;16.96;64.67
64343;BME280;50675;53.530;-6.312;2023-05-11T17:56:16;101309.44;;;16.83;64.66